sensor_id;sensor_type;location;lat;lon;timestamp;pressure;altitude;pressure_sealevel;temperature;humidity
10518;BME280;5307;42.548;22.968;2023-12-04T00:02:25;94285.69;;;-1.19;87.45
10518;BME280;5307;42.548;22.968;2023-12-04T00:04:52;94289.78;;;-0.99;87.32
10518;BME280;5307;42.548;22.968;2023-12-04T00:07:19;94293.00;;;-0.86;87.72
10518;BME280;5307;42.548;22.968;2023-12-04T00:09:45;94307.16;;;-0.89;86.96
10518;BME280;5307;42.548;22.968;2023-12-04T00:12:12;94302.38;;;-0.73;86.87
10518;BME280;5307;42.548;22.968;2023-12-04T00:14:39;94301.56;;;-0.77;86.96
10518;BME280;5307;42.548;22.968;2023-12-04T00:17:06;94302.38;;;-0.73;86.21
10518;BME280;5307;42.548;22.968;2023-12-04T00:19:33;94306.47;;;-0.52;86.95
10518;BME280;5307;42.548;22.968;2023-12-04T00:22:00;94303.31;;;-0.58;85.94
10518;BME280;5307;42.548;22.968;2023-12-04T00:24:26;94310.19;;;-0.61;85.96
10518;BME280;5307;42.548;22.968;2023-12-04T00:26:53;94309.53;;;-0.54;85.96
10518;BME280;5307;42.548;22.968;2023-12-04T00:29:20;94308.59;;;-0.35;85.65
10518;BME280;5307;42.548;22.968;2023-12-04T00:31:47;94309.03;;;-0.30;85.28
10518;BME280;5307;42.548;22.968;2023-12-04T00:34:14;94314.28;;;-0.40;84.45
10518;BME280;5307;42.548;22.968;2023-12-04T00:36:42;94314.75;;;-0.31;84.96
10518;BME280;5307;42.548;22.968;2023-12-04T00:39:08;94330.56;;;-0.22;84.80
10518;BME280;5307;42.548;22.968;2023-12-04T00:41:35;94329.81;;;-0.23;84.46
10518;BME280;5307;42.548;22.968;2023-12-04T00:44:02;94328.53;;;-0.33;84.04
10518;BME280;5307;42.548;22.968;2023-12-04T00:46:29;94328.00;;;-0.45;84.21
10518;BME280;5307;42.548;22.968;2023-12-04T00:48:56;94330.41;;;-0.37;84.39
10518;BME280;5307;42.548;22.968;2023-12-04T00:51:23;94322.81;;;-0.31;84.35
10518;BME280;5307;42.548;22.968;2023-12-04T00:53:53;94332.94;;;-0.17;84.21
10518;BME280;5307;42.548;22.968;2023-12-04T00:56:19;94326.81;;;-0.14;83.72
10518;BME280;5307;42.548;22.968;2023-12-04T00:58:46;94330.22;;;-0.21;83.95
10518;BME280;5307;42.548;22.968;2023-12-04T01:12:00;94340.28;;;-0.44;83.14
10518;BME280;5307;42.548;22.968;2023-12-04T01:14:27;94340.28;;;-0.44;82.63
10518;BME280;5307;42.548;22.968;2023-12-04T01:16:54;94335.84;;;-0.30;82.71
10518;BME280;5307;42.548;22.968;2023-12-04T01:19:20;94344.38;;;-0.24;82.01
10518;BME280;5307;42.548;22.968;2023-12-04T01:21:47;94338.97;;;-0.27;81.79
10518;BME280;5307;42.548;22.968;2023-12-04T01:24:15;94339.63;;;-0.34;82.07
10518;BME280;5307;42.548;22.968;2023-12-04T01:26:42;94343.56;;;-0.28;82.00
10518;BME280;5307;42.548;22.968;2023-12-04T01:29:10;94341.16;;;-0.37;82.30
10518;BME280;5307;42.548;22.968;2023-12-04T01:31:37;94331.94;;;-0.39;81.69
10518;BME280;5307;42.548;22.968;2023-12-04T01:34:03;94339.47;;;-0.48;81.84
10518;BME280;5307;42.548;22.968;2023-12-04T01:36:30;94340.53;;;-0.23;81.86
10518;BME280;5307;42.548;22.968;2023-12-04T01:38:57;94330.56;;;-0.22;81.49
10518;BME280;5307;42.548;22.968;2023-12-04T01:41:24;94329.06;;;-0.20;81.03
10518;BME280;5307;42.548;22.968;2023-12-04T01:43:51;94329.06;;;-0.20;81.74
10518;BME280;5307;42.548;22.968;2023-12-04T01:46:19;94331.94;;;-0.39;81.05
10518;BME280;5307;42.548;22.968;2023-12-04T01:48:46;94334.56;;;-0.09;81.34
10518;BME280;5307;42.548;22.968;2023-12-04T01:51:14;94331.66;;;-0.61;80.39
10518;BME280;5307;42.548;22.968;2023-12-04T01:53:42;94330.03;;;-0.35;81.33
10518;BME280;5307;42.548;22.968;2023-12-04T01:56:09;94322.03;;;-0.32;80.82
10518;BME280;5307;42.548;22.968;2023-12-04T01:58:37;94318.00;;;-0.48;80.45
10518;BME280;5307;42.548;22.968;2023-12-04T02:01:05;94323.13;;;-0.36;80.64
10518;BME280;5307;42.548;22.968;2023-12-04T02:03:33;94327.47;;;-0.28;80.16
10518;BME280;5307;42.548;22.968;2023-12-04T02:06:00;94339.41;;;-0.55;79.95
10518;BME280;5307;42.548;22.968;2023-12-04T02:08:29;94341.16;;;-0.67;79.94
10518;BME280;5307;42.548;22.968;2023-12-04T02:10:55;94333.91;;;-0.33;80.11
10518;BME280;5307;42.548;22.968;2023-12-04T02:13:22;94336.28;;;-0.57;79.55
10518;BME280;5307;42.548;22.968;2023-12-04T02:15:52;94348.16;;;-0.58;79.59
10518;BME280;5307;42.548;22.968;2023-12-04T02:18:20;94344.56;;;-0.70;79.30
10518;BME280;5307;42.548;22.968;2023-12-04T02:20:48;94343.91;;;-0.60;79.67
10518;BME280;5307;42.548;22.968;2023-12-04T02:23:15;94347.00;;;-0.57;78.98
10518;BME280;5307;42.548;22.968;2023-12-04T02:25:44;94348.03;;;-0.39;78.82
10518;BME280;5307;42.548;22.968;2023-12-04T02:28:19;94338.31;;;-0.47;78.98
10518;BME280;5307;42.548;22.968;2023-12-04T02:30:48;94350.22;;;-0.45;78.48
10518;BME280;5307;42.548;22.968;2023-12-04T02:33:17;94346.91;;;-0.35;77.96
10518;BME280;5307;42.548;22.968;2023-12-04T02:35:48;94355.00;;;-0.31;77.28
10518;BME280;5307;42.548;22.968;2023-12-04T02:38:17;94354.97;;;-0.35;77.34
10518;BME280;5307;42.548;22.968;2023-12-04T02:40:46;94366.44;;;-0.38;76.78
10518;BME280;5307;42.548;22.968;2023-12-04T02:43:13;94363.16;;;-0.54;76.84
10518;BME280;5307;42.548;22.968;2023-12-04T02:45:39;94370.13;;;-0.49;76.82
10518;BME280;5307;42.548;22.968;2023-12-04T02:48:07;94370.66;;;-0.67;76.79
10518;BME280;5307;42.548;22.968;2023-12-04T02:50:35;94372.19;;;-0.66;77.03
10518;BME280;5307;42.548;22.968;2023-12-04T02:53:02;94367.88;;;-0.44;77.51
10518;BME280;5307;42.548;22.968;2023-12-04T02:55:29;94357.63;;;-0.38;77.45
10518;BME280;5307;42.548;22.968;2023-12-04T02:57:57;94370.66;;;-0.67;77.56
10518;BME280;5307;42.548;22.968;2023-12-04T03:00:24;94358.88;;;-0.58;77.27
10518;BME280;5307;42.548;22.968;2023-12-04T03:02:50;94369.31;;;-0.53;77.19
10518;BME280;5307;42.548;22.968;2023-12-04T03:05:19;94374.31;;;-0.52;77.26
10518;BME280;5307;42.548;22.968;2023-12-04T03:07:45;94373.50;;;-0.56;77.38
10518;BME280;5307;42.548;22.968;2023-12-04T03:10:13;94371.88;;;-0.61;78.01
10518;BME280;5307;42.548;22.968;2023-12-04T03:12:40;94374.56;;;-0.61;77.69
10518;BME280;5307;42.548;22.968;2023-12-04T03:15:09;94385.88;;;-0.44;77.55
10518;BME280;5307;42.548;22.968;2023-12-04T03:17:37;94385.78;;;-0.81;77.15
10518;BME280;5307;42.548;22.968;2023-12-04T03:20:04;94390.97;;;-0.66;77.37
10518;BME280;5307;42.548;22.968;2023-12-04T03:22:36;94404.47;;;-0.58;76.97
10518;BME280;5307;42.548;22.968;2023-12-04T03:25:04;94395.38;;;-0.80;77.25
10518;BME280;5307;42.548;22.968;2023-12-04T03:27:30;94390.97;;;-0.66;77.90
10518;BME280;5307;42.548;22.968;2023-12-04T03:29:57;94401.22;;;-0.71;77.72
10518;BME280;5307;42.548;22.968;2023-12-04T03:32:25;94399.63;;;-0.76;77.58
10518;BME280;5307;42.548;22.968;2023-12-04T03:34:52;94402.00;;;-0.71;77.68
10518;BME280;5307;42.548;22.968;2023-12-04T03:37:19;94412.94;;;-1.09;77.89
10518;BME280;5307;42.548;22.968;2023-12-04T03:39:45;94398.59;;;-0.94;77.39
10518;BME280;5307;42.548;22.968;2023-12-04T03:42:12;94399.25;;;-1.01;77.76
10518;BME280;5307;42.548;22.968;2023-12-04T03:44:39;94410.91;;;-0.90;78.14
10518;BME280;5307;42.548;22.968;2023-12-04T03:47:07;94414.59;;;-0.75;77.84
10518;BME280;5307;42.548;22.968;2023-12-04T03:49:35;94418.28;;;-0.56;78.07
10518;BME280;5307;42.548;22.968;2023-12-04T03:52:02;94417.22;;;-0.78;77.90
10518;BME280;5307;42.548;22.968;2023-12-04T03:54:30;94417.31;;;-0.71;77.99
10518;BME280;5307;42.548;22.968;2023-12-04T04:00:35;94397.53;;;-0.90;78.28
10518;BME280;5307;42.548;22.968;2023-12-04T04:03:06;94436.22;;;-0.87;77.85
10518;BME280;5307;42.548;22.968;2023-12-04T04:05:34;94428.59;;;-0.58;77.89
10518;BME280;5307;42.548;22.968;2023-12-04T04:08:01;94421.19;;;-0.69;77.62
10518;BME280;5307;42.548;22.968;2023-12-04T04:10:28;94418.72;;;-0.81;77.72
10518;BME280;5307;42.548;22.968;2023-12-04T04:12:55;94424.88;;;-1.03;77.40
10518;BME280;5307;42.548;22.968;2023-12-04T04:15:21;94422.19;;;-0.80;77.82
10518;BME280;5307;42.548;22.968;2023-12-04T04:17:48;94429.31;;;-0.88;77.52
10518;BME280;5307;42.548;22.968;2023-12-04T04:20:15;94416.25;;;-0.67;77.45
10518;BME280;5307;42.548;22.968;2023-12-04T04:22:43;94433.09;;;-0.93;77.14
10518;BME280;5307;42.548;22.968;2023-12-04T04:25:12;94430.66;;;-1.01;77.05
10518;BME280;5307;42.548;22.968;2023-12-04T04:27:38;94437.28;;;-0.95;76.86
10518;BME280;5307;42.548;22.968;2023-12-04T04:30:06;94442.03;;;-1.08;77.26
10518;BME280;5307;42.548;22.968;2023-12-04T04:32:34;94442.09;;;-1.04;76.80
10518;BME280;5307;42.548;22.968;2023-12-04T04:35:00;94443.91;;;-1.12;76.85
10518;BME280;5307;42.548;22.968;2023-12-04T04:37:27;94437.88;;;-1.28;76.84
10518;BME280;5307;42.548;22.968;2023-12-04T04:39:55;94447.16;;;-0.99;76.99
10518;BME280;5307;42.548;22.968;2023-12-04T04:42:22;94454.25;;;-1.10;76.87
10518;BME280;5307;42.548;22.968;2023-12-04T04:44:49;94461.94;;;-1.09;77.17
10518;BME280;5307;42.548;22.968;2023-12-04T04:47:16;94458.84;;;-1.34;77.58
10518;BME280;5307;42.548;22.968;2023-12-04T04:49:42;94470.34;;;-1.10;77.44
10518;BME280;5307;42.548;22.968;2023-12-04T04:52:09;94472.75;;;-1.02;77.28
10518;BME280;5307;42.548;22.968;2023-12-04T04:54:36;94461.22;;;-1.06;77.04
10518;BME280;5307;42.548;22.968;2023-12-04T04:57:04;94467.69;;;-1.30;77.79
10518;BME280;5307;42.548;22.968;2023-12-04T04:59:31;94478.06;;;-1.05;77.51
10518;BME280;5307;42.548;22.968;2023-12-04T05:01:58;94468.34;;;-1.13;77.57
10518;BME280;5307;42.548;22.968;2023-12-04T05:04:25;94474.03;;;-1.18;77.76
10518;BME280;5307;42.548;22.968;2023-12-04T05:06:51;94476.28;;;-1.21;77.47
10518;BME280;5307;42.548;22.968;2023-12-04T05:09:18;94479.13;;;-1.33;77.83
10518;BME280;5307;42.548;22.968;2023-12-04T05:11:45;94479.69;;;-1.43;77.96
10518;BME280;5307;42.548;22.968;2023-12-04T05:14:13;94482.22;;;-1.54;78.42
10518;BME280;5307;42.548;22.968;2023-12-04T05:16:40;94474.13;;;-1.34;78.28
10518;BME280;5307;42.548;22.968;2023-12-04T05:19:06;94478.50;;;-1.45;78.61
10518;BME280;5307;42.548;22.968;2023-12-04T05:21:34;94466.88;;;-1.34;78.56
10518;BME280;5307;42.548;22.968;2023-12-04T05:24:00;94475.09;;;-1.65;78.32
10518;BME280;5307;42.548;22.968;2023-12-04T05:26:27;94469.06;;;-1.39;79.16
10518;BME280;5307;42.548;22.968;2023-12-04T05:28:54;94475.56;;;-1.40;79.00
10518;BME280;5307;42.548;22.968;2023-12-04T05:31:22;94477.94;;;-1.35;78.58
10518;BME280;5307;42.548;22.968;2023-12-04T05:33:49;94482.16;;;-1.34;78.77
10518;BME280;5307;42.548;22.968;2023-12-04T05:36:15;94483.03;;;-1.50;78.57
10518;BME280;5307;42.548;22.968;2023-12-04T05:38:42;94491.84;;;-1.49;79.80
10518;BME280;5307;42.548;22.968;2023-12-04T05:41:09;94487.06;;;-1.40;78.98
10518;BME280;5307;42.548;22.968;2023-12-04T05:43:36;94485.66;;;-1.53;79.06
10518;BME280;5307;42.548;22.968;2023-12-04T05:46:03;94489.16;;;-1.49;79.32
10518;BME280;5307;42.548;22.968;2023-12-04T05:48:31;94496.06;;;-1.48;78.96
10518;BME280;5307;42.548;22.968;2023-12-04T05:50:58;94493.97;;;-1.58;78.85
10518;BME280;5307;42.548;22.968;2023-12-04T05:53:24;94490.75;;;-1.67;78.85
10518;BME280;5307;42.548;22.968;2023-12-04T05:55:53;94483.41;;;-1.70;78.99
10518;BME280;5307;42.548;22.968;2023-12-04T05:58:20;94491.69;;;-1.56;79.63
10518;BME280;5307;42.548;22.968;2023-12-04T06:00:47;94494.53;;;-1.49;79.79
10518;BME280;5307;42.548;22.968;2023-12-04T06:03:13;94493.56;;;-1.80;78.96
10518;BME280;5307;42.548;22.968;2023-12-04T06:05:41;94496.09;;;-1.67;79.87
10518;BME280;5307;42.548;22.968;2023-12-04T06:08:08;94497.78;;;-1.78;79.29
10518;BME280;5307;42.548;22.968;2023-12-04T06:10:35;94495.72;;;-1.46;79.27
10518;BME280;5307;42.548;22.968;2023-12-04T06:13:02;94498.44;;;-1.43;78.97
10518;BME280;5307;42.548;22.968;2023-12-04T06:15:28;94497.69;;;-1.43;78.98
10518;BME280;5307;42.548;22.968;2023-12-04T06:17:56;94489.47;;;-1.54;78.53
10518;BME280;5307;42.548;22.968;2023-12-04T06:20:22;94495.25;;;-1.52;78.69
10518;BME280;5307;42.548;22.968;2023-12-04T06:22:51;94493.09;;;-1.43;78.54
10518;BME280;5307;42.548;22.968;2023-12-04T06:25:19;94486.69;;;-1.38;79.08
10518;BME280;5307;42.548;22.968;2023-12-04T06:27:46;94499.94;;;-1.26;78.73
10518;BME280;5307;42.548;22.968;2023-12-04T06:30:13;94500.31;;;-1.47;78.41
10518;BME280;5307;42.548;22.968;2023-12-04T06:32:41;94496.50;;;-1.46;78.03
10518;BME280;5307;42.548;22.968;2023-12-04T06:35:09;94503.53;;;-1.38;78.29
10518;BME280;5307;42.548;22.968;2023-12-04T06:37:38;94513.47;;;-1.38;77.62
10518;BME280;5307;42.548;22.968;2023-12-04T06:40:07;94525.19;;;-1.66;78.07
10518;BME280;5307;42.548;22.968;2023-12-04T06:42:37;94524.69;;;-1.52;77.84
10518;BME280;5307;42.548;22.968;2023-12-04T06:45:05;94532.00;;;-1.30;78.00
10518;BME280;5307;42.548;22.968;2023-12-04T06:47:34;94535.25;;;-1.59;77.43
10518;BME280;5307;42.548;22.968;2023-12-04T06:58:29;94528.91;;;-1.32;77.50
10518;BME280;5307;42.548;22.968;2023-12-04T07:00:56;94530.88;;;-1.48;77.54
10518;BME280;5307;42.548;22.968;2023-12-04T07:03:22;94524.16;;;-1.19;77.60
10518;BME280;5307;42.548;22.968;2023-12-04T07:05:50;94529.72;;;-1.08;76.92
10518;BME280;5307;42.548;22.968;2023-12-04T07:08:16;94529.00;;;-0.82;76.97
10518;BME280;5307;42.548;22.968;2023-12-04T07:10:43;94523.06;;;-0.19;75.65
10518;BME280;5307;42.548;22.968;2023-12-04T07:13:10;94523.00;;;-0.26;74.54
10518;BME280;5307;42.548;22.968;2023-12-04T07:15:39;94531.81;;;-0.26;74.23
10518;BME280;5307;42.548;22.968;2023-12-04T07:18:06;94529.69;;;0.80;73.32
10518;BME280;5307;42.548;22.968;2023-12-04T07:20:33;94537.06;;;0.87;72.00
10518;BME280;5307;42.548;22.968;2023-12-04T07:23:00;94535.59;;;1.34;70.70
10518;BME280;5307;42.548;22.968;2023-12-04T07:25:26;94532.22;;;1.44;69.07
10518;BME280;5307;42.548;22.968;2023-12-04T07:27:53;94536.38;;;1.38;68.05
10518;BME280;5307;42.548;22.968;2023-12-04T07:30:20;94538.88;;;1.57;67.33
10518;BME280;5307;42.548;22.968;2023-12-04T07:32:48;94531.28;;;1.26;66.63
10518;BME280;5307;42.548;22.968;2023-12-04T07:35:15;94531.13;;;2.07;65.04
10518;BME280;5307;42.548;22.968;2023-12-04T07:37:43;94533.63;;;1.78;64.90
10518;BME280;5307;42.548;22.968;2023-12-04T07:40:11;94537.09;;;2.41;63.83
10518;BME280;5307;42.548;22.968;2023-12-04T07:42:37;94534.59;;;2.87;63.02
10518;BME280;5307;42.548;22.968;2023-12-04T07:45:06;94529.16;;;2.80;62.56
10518;BME280;5307;42.548;22.968;2023-12-04T07:47:33;94525.44;;;3.24;61.74
10518;BME280;5307;42.548;22.968;2023-12-04T07:50:01;94525.03;;;3.29;60.11
10518;BME280;5307;42.548;22.968;2023-12-04T07:52:28;94521.91;;;3.09;59.20
10518;BME280;5307;42.548;22.968;2023-12-04T07:54:54;94525.78;;;3.19;57.86
10518;BME280;5307;42.548;22.968;2023-12-04T07:57:22;94535.06;;;3.46;58.59
10518;BME280;5307;42.548;22.968;2023-12-04T07:59:49;94537.34;;;3.23;58.17
10518;BME280;5307;42.548;22.968;2023-12-04T08:02:15;94536.97;;;3.21;57.73
10518;BME280;5307;42.548;22.968;2023-12-04T08:04:42;94544.34;;;3.38;57.98
10518;BME280;5307;42.548;22.968;2023-12-04T08:07:12;94547.28;;;2.87;57.34
10518;BME280;5307;42.548;22.968;2023-12-04T08:09:39;94546.09;;;2.70;57.96
10518;BME280;5307;42.548;22.968;2023-12-04T08:12:06;94548.91;;;3.16;57.75
10518;BME280;5307;42.548;22.968;2023-12-04T08:14:34;94544.34;;;3.52;58.44
10518;BME280;5307;42.548;22.968;2023-12-04T08:17:01;94546.09;;;1.97;58.79
10518;BME280;5307;42.548;22.968;2023-12-04T08:19:28;94543.22;;;2.34;58.58
10518;BME280;5307;42.548;22.968;2023-12-04T08:21:54;94537.41;;;3.94;58.29
10518;BME280;5307;42.548;22.968;2023-12-04T08:24:23;94542.03;;;3.44;57.30
10518;BME280;5307;42.548;22.968;2023-12-04T08:26:50;94542.81;;;3.94;56.82
10518;BME280;5307;42.548;22.968;2023-12-04T08:29:17;94542.00;;;3.26;57.76
10518;BME280;5307;42.548;22.968;2023-12-04T08:31:44;94551.19;;;2.96;57.33
10518;BME280;5307;42.548;22.968;2023-12-04T08:34:10;94545.34;;;4.62;56.28
10518;BME280;5307;42.548;22.968;2023-12-04T08:36:37;94554.31;;;3.20;56.15
10518;BME280;5307;42.548;22.968;2023-12-04T08:39:04;94549.72;;;3.45;55.30
10518;BME280;5307;42.548;22.968;2023-12-04T08:41:32;94548.16;;;3.37;55.50
10518;BME280;5307;42.548;22.968;2023-12-04T08:43:59;94559.75;;;3.27;57.35
10518;BME280;5307;42.548;22.968;2023-12-04T08:46:26;94544.22;;;4.48;55.72
10518;BME280;5307;42.548;22.968;2023-12-04T08:48:53;94544.66;;;3.19;55.18
10518;BME280;5307;42.548;22.968;2023-12-04T08:51:19;94539.69;;;5.19;53.47
10518;BME280;5307;42.548;22.968;2023-12-04T08:53:46;94533.09;;;4.22;52.61
10518;BME280;5307;42.548;22.968;2023-12-04T08:56:13;94530.31;;;4.46;52.47
10518;BME280;5307;42.548;22.968;2023-12-04T08:58:41;94527.13;;;4.80;52.53
10518;BME280;5307;42.548;22.968;2023-12-04T09:01:08;94516.69;;;4.75;51.37
10518;BME280;5307;42.548;22.968;2023-12-04T09:03:34;94524.63;;;4.05;51.96
10518;BME280;5307;42.548;22.968;2023-12-04T09:06:01;94540.41;;;4.35;50.88
10518;BME280;5307;42.548;22.968;2023-12-04T09:08:28;94516.91;;;5.13;50.49
10518;BME280;5307;42.548;22.968;2023-12-04T09:10:55;94518.09;;;3.74;50.29
10518;BME280;5307;42.548;22.968;2023-12-04T09:13:22;94520.41;;;5.10;50.49
10518;BME280;5307;42.548;22.968;2023-12-04T09:15:50;94521.16;;;4.12;49.95
10518;BME280;5307;42.548;22.968;2023-12-04T09:18:17;94525.81;;;3.79;50.63
10518;BME280;5307;42.548;22.968;2023-12-04T09:20:44;94510.50;;;5.44;50.29
10518;BME280;5307;42.548;22.968;2023-12-04T09:23:11;94505.69;;;4.27;48.72
10518;BME280;5307;42.548;22.968;2023-12-04T09:25:37;94514.88;;;5.27;49.21
10518;BME280;5307;42.548;22.968;2023-12-04T09:28:04;94507.22;;;4.28;48.84
10518;BME280;5307;42.548;22.968;2023-12-04T09:30:31;94519.19;;;4.20;46.96
10518;BME280;5307;42.548;22.968;2023-12-04T09:32:59;94509.13;;;4.31;48.77
10518;BME280;5307;42.548;22.968;2023-12-04T09:35:26;94512.50;;;5.85;49.05
10518;BME280;5307;42.548;22.968;2023-12-04T09:37:52;94511.72;;;4.66;47.03
10518;BME280;5307;42.548;22.968;2023-12-04T09:40:19;94502.81;;;4.69;46.85
10518;BME280;5307;42.548;22.968;2023-12-04T09:42:46;94501.53;;;4.92;47.42
10518;BME280;5307;42.548;22.968;2023-12-04T09:45:13;94505.97;;;5.30;45.74
10518;BME280;5307;42.548;22.968;2023-12-04T09:56:37;94477.59;;;5.98;45.98
10518;BME280;5307;42.548;22.968;2023-12-04T09:59:06;94470.13;;;6.43;45.82
10518;BME280;5307;42.548;22.968;2023-12-04T10:01:36;94468.13;;;6.50;44.78
10518;BME280;5307;42.548;22.968;2023-12-04T10:04:03;94477.22;;;5.95;44.98
10518;BME280;5307;42.548;22.968;2023-12-04T10:06:30;94475.91;;;5.14;43.92
10518;BME280;5307;42.548;22.968;2023-12-04T10:08:57;94476.59;;;5.25;43.75
10518;BME280;5307;42.548;22.968;2023-12-04T10:11:25;94486.97;;;4.64;43.32
10518;BME280;5307;42.548;22.968;2023-12-04T10:13:54;94488.19;;;5.26;44.14
10518;BME280;5307;42.548;22.968;2023-12-04T10:16:34;94484.59;;;5.43;43.46
10518;BME280;5307;42.548;22.968;2023-12-04T10:19:20;94470.97;;;4.04;44.89
10518;BME280;5307;42.548;22.968;2023-12-04T10:21:49;94473.38;;;5.41;44.52
10518;BME280;5307;42.548;22.968;2023-12-04T10:24:31;94466.56;;;4.49;44.93
10518;BME280;5307;42.548;22.968;2023-12-04T10:26:59;94464.75;;;6.02;45.06
10518;BME280;5307;42.548;22.968;2023-12-04T10:29:29;94459.69;;;5.11;45.79
10518;BME280;5307;42.548;22.968;2023-12-04T10:31:58;94460.00;;;5.23;43.37
10518;BME280;5307;42.548;22.968;2023-12-04T10:34:26;94455.94;;;5.94;44.93
10518;BME280;5307;42.548;22.968;2023-12-04T10:36:53;94453.56;;;6.00;45.18
10518;BME280;5307;42.548;22.968;2023-12-04T10:39:20;94458.56;;;7.00;44.08
10518;BME280;5307;42.548;22.968;2023-12-04T10:41:59;94455.66;;;6.19;41.31
10518;BME280;5307;42.548;22.968;2023-12-04T10:44:27;94454.22;;;6.11;40.31
10518;BME280;5307;42.548;22.968;2023-12-04T10:46:55;94446.53;;;6.40;42.22
10518;BME280;5307;42.548;22.968;2023-12-04T10:49:26;94441.63;;;7.19;44.43
10518;BME280;5307;42.548;22.968;2023-12-04T10:51:55;94442.75;;;5.96;42.65
10518;BME280;5307;42.548;22.968;2023-12-04T10:54:22;94446.66;;;4.91;46.64
10518;BME280;5307;42.548;22.968;2023-12-04T10:56:51;94447.69;;;4.35;45.18
10518;BME280;5307;42.548;22.968;2023-12-04T10:59:23;94448.94;;;5.97;44.49
10518;BME280;5307;42.548;22.968;2023-12-04T11:01:53;94433.75;;;5.61;44.73
10518;BME280;5307;42.548;22.968;2023-12-04T11:04:25;94439.09;;;6.78;44.97
10518;BME280;5307;42.548;22.968;2023-12-04T11:06:54;94424.63;;;6.84;44.10
10518;BME280;5307;42.548;22.968;2023-12-04T11:09:21;94418.81;;;4.91;42.68
10518;BME280;5307;42.548;22.968;2023-12-04T11:11:56;94425.28;;;5.04;45.05
10518;BME280;5307;42.548;22.968;2023-12-04T11:14:25;94430.00;;;5.93;42.23
10518;BME280;5307;42.548;22.968;2023-12-04T11:17:01;94422.63;;;5.52;44.08
10518;BME280;5307;42.548;22.968;2023-12-04T11:19:32;94430.31;;;5.99;45.59
10518;BME280;5307;42.548;22.968;2023-12-04T11:22:02;94423.50;;;4.83;43.65
10518;BME280;5307;42.548;22.968;2023-12-04T11:24:30;94417.25;;;5.86;44.65
10518;BME280;5307;42.548;22.968;2023-12-04T11:26:58;94418.31;;;6.64;45.73
10518;BME280;5307;42.548;22.968;2023-12-04T11:29:26;94426.31;;;6.44;45.99
10518;BME280;5307;42.548;22.968;2023-12-04T11:31:53;94414.66;;;5.31;46.35
10518;BME280;5307;42.548;22.968;2023-12-04T11:34:21;94410.56;;;5.57;46.26
10518;BME280;5307;42.548;22.968;2023-12-04T11:36:48;94411.44;;;4.29;46.80
10518;BME280;5307;42.548;22.968;2023-12-04T11:39:15;94398.78;;;4.77;46.64
10518;BME280;5307;42.548;22.968;2023-12-04T11:41:41;94401.56;;;5.26;46.18
10518;BME280;5307;42.548;22.968;2023-12-04T11:44:12;94395.22;;;5.43;45.87
10518;BME280;5307;42.548;22.968;2023-12-04T11:46:41;94392.22;;;6.13;45.85
10518;BME280;5307;42.548;22.968;2023-12-04T11:49:28;94389.47;;;5.75;45.64
10518;BME280;5307;42.548;22.968;2023-12-04T11:51:55;94390.75;;;5.67;44.87
10518;BME280;5307;42.548;22.968;2023-12-04T11:54:22;94382.56;;;5.71;47.17
10518;BME280;5307;42.548;22.968;2023-12-04T11:57:19;94382.94;;;5.73;47.87
10518;BME280;5307;42.548;22.968;2023-12-04T11:59:47;94378.13;;;5.05;47.35
10518;BME280;5307;42.548;22.968;2023-12-04T12:02:15;94371.84;;;5.60;46.84
10518;BME280;5307;42.548;22.968;2023-12-04T12:04:44;94379.44;;;5.72;47.04
10518;BME280;5307;42.548;22.968;2023-12-04T12:07:11;94363.66;;;5.67;46.19
10518;BME280;5307;42.548;22.968;2023-12-04T12:09:38;94365.16;;;6.09;46.23
10518;BME280;5307;42.548;22.968;2023-12-04T12:12:06;94364.09;;;6.00;49.48
10518;BME280;5307;42.548;22.968;2023-12-04T12:14:33;94355.22;;;5.95;47.92
10518;BME280;5307;42.548;22.968;2023-12-04T12:17:00;94359.63;;;5.41;48.50
10518;BME280;5307;42.548;22.968;2023-12-04T12:19:27;94353.44;;;5.41;46.25
10518;BME280;5307;42.548;22.968;2023-12-04T12:21:55;94349.03;;;4.64;47.08
10518;BME280;5307;42.548;22.968;2023-12-04T12:24:23;94351.28;;;5.25;47.63
10518;BME280;5307;42.548;22.968;2023-12-04T12:26:50;94351.06;;;5.46;46.64
10518;BME280;5307;42.548;22.968;2023-12-04T12:29:17;94338.91;;;5.65;46.91
10518;BME280;5307;42.548;22.968;2023-12-04T12:31:44;94330.81;;;5.20;47.03
10518;BME280;5307;42.548;22.968;2023-12-04T12:34:11;94332.97;;;4.95;46.42
10518;BME280;5307;42.548;22.968;2023-12-04T12:36:38;94341.41;;;4.48;48.30
10518;BME280;5307;42.548;22.968;2023-12-04T12:39:07;94330.75;;;4.83;46.54
10518;BME280;5307;42.548;22.968;2023-12-04T12:41:34;94337.28;;;4.85;46.50
10518;BME280;5307;42.548;22.968;2023-12-04T12:44:01;94330.66;;;4.93;47.28
10518;BME280;5307;42.548;22.968;2023-12-04T12:46:29;94338.50;;;4.81;48.87
10518;BME280;5307;42.548;22.968;2023-12-04T12:48:56;94331.19;;;4.74;47.17
10518;BME280;5307;42.548;22.968;2023-12-04T12:51:23;94330.78;;;4.79;48.30
10518;BME280;5307;42.548;22.968;2023-12-04T12:57:32;94322.56;;;4.90;48.74
10518;BME280;5307;42.548;22.968;2023-12-04T12:59:59;94323.19;;;4.56;49.91
10518;BME280;5307;42.548;22.968;2023-12-04T13:02:26;94315.59;;;4.89;51.07
10518;BME280;5307;42.548;22.968;2023-12-04T13:04:52;94323.69;;;4.92;49.13
10518;BME280;5307;42.548;22.968;2023-12-04T13:07:19;94324.09;;;4.91;48.83
10518;BME280;5307;42.548;22.968;2023-12-04T13:09:46;94322.19;;;4.88;49.34
10518;BME280;5307;42.548;22.968;2023-12-04T13:12:13;94324.50;;;4.93;50.91
10518;BME280;5307;42.548;22.968;2023-12-04T13:14:42;94320.53;;;5.01;49.63
10518;BME280;5307;42.548;22.968;2023-12-04T13:17:09;94321.28;;;4.53;50.62
10518;BME280;5307;42.548;22.968;2023-12-04T13:19:35;94318.09;;;4.69;49.85
10518;BME280;5307;42.548;22.968;2023-12-04T13:22:02;94314.44;;;4.90;50.02
10518;BME280;5307;42.548;22.968;2023-12-04T13:24:30;94317.00;;;4.59;49.63
10518;BME280;5307;42.548;22.968;2023-12-04T13:26:56;94319.97;;;4.16;50.59
10518;BME280;5307;42.548;22.968;2023-12-04T13:29:23;94316.38;;;4.34;50.78
10518;BME280;5307;42.548;22.968;2023-12-04T13:31:51;94314.31;;;4.56;50.27
10518;BME280;5307;42.548;22.968;2023-12-04T13:34:18;94302.16;;;4.78;50.26
10518;BME280;5307;42.548;22.968;2023-12-04T13:36:45;94305.22;;;4.84;51.14
10518;BME280;5307;42.548;22.968;2023-12-04T13:39:12;94313.91;;;4.57;50.34
10518;BME280;5307;42.548;22.968;2023-12-04T13:41:45;94304.66;;;4.55;50.58
10518;BME280;5307;42.548;22.968;2023-12-04T13:44:30;94309.47;;;4.85;50.91